createdAt,value
2022-11-20T00:01:40.655Z,13.02
2022-11-20T00:04:15.200Z,13.06
2022-11-20T00:06:44.465Z,12.95
2022-11-20T00:09:18.645Z,13.03
2022-11-20T00:11:46.155Z,12.77
2022-11-20T00:14:17.548Z,12.80
2022-11-20T00:16:44.878Z,12.67
2022-11-20T00:19:12.105Z,12.56
2022-11-20T00:21:44.142Z,12.77
2022-11-20T00:24:13.951Z,12.92
2022-11-20T00:26:43.969Z,12.67
2022-11-20T00:29:11.608Z,12.77
2022-11-20T00:31:41.096Z,12.65
2022-11-20T00:34:16.108Z,12.63
2022-11-20T00:36:43.173Z,12.87
2022-11-20T00:39:12.473Z,13.04
2022-11-20T00:41:39.446Z,12.98
2022-11-20T00:44:06.721Z,13.13
2022-11-20T00:46:35.908Z,13.23
2022-11-20T00:49:02.771Z,13.33
2022-11-20T00:51:29.829Z,13.09
2022-11-20T00:54:01.229Z,12.84
2022-11-20T00:56:30.866Z,12.77
2022-11-20T00:59:00.713Z,12.73
2022-11-20T01:01:32.642Z,12.88
2022-11-20T01:04:01.950Z,12.92
2022-11-20T01:06:35.222Z,12.98
2022-11-20T01:09:06.066Z,12.97
2022-11-20T01:11:36.402Z,12.85
2022-11-20T01:14:07.192Z,12.96
2022-11-20T01:16:39.550Z,12.96
2022-11-20T01:19:10.680Z,12.91
2022-11-20T01:21:40.320Z,13.06
2022-11-20T01:24:11.972Z,13.12
2022-11-20T01:26:50.496Z,13.07
2022-11-20T01:29:23.745Z,13.29
2022-11-20T01:31:54.474Z,13.32
2022-11-20T01:34:23.321Z,13.31
2022-11-20T01:36:55.670Z,13.13
2022-11-20T01:39:28.073Z,12.59
2022-11-20T01:42:16.204Z,12.55
2022-11-20T01:44:59.946Z,12.53
2022-11-20T01:47:44.158Z,12.43
2022-11-20T01:50:30.068Z,12.49
2022-11-20T01:53:07.363Z,12.64
2022-11-20T01:55:40.943Z,12.57
2022-11-20T01:58:13.371Z,12.36
2022-11-20T02:00:41.377Z,12.48
2022-11-20T02:03:20.037Z,12.40
2022-11-20T02:05:55.685Z,12.71
2022-11-20T02:08:24.423Z,12.38
2022-11-20T02:10:51.974Z,12.42
2022-11-20T02:13:38.447Z,12.36
2022-11-20T02:16:32.909Z,12.62
2022-11-20T02:19:03.119Z,12.74
2022-11-20T02:21:35.976Z,12.95
2022-11-20T02:24:15.880Z,12.78
2022-11-20T02:27:03.295Z,13.06
2022-11-20T02:29:41.826Z,13.03
2022-11-20T02:32:20.703Z,12.95
2022-11-20T02:34:48.146Z,12.99
2022-11-20T02:37:16.687Z,13.13
2022-11-20T02:39:45.718Z,13.06
2022-11-20T02:42:12.851Z,12.61
2022-11-20T02:44:39.912Z,12.76
2022-11-20T02:47:06.936Z,12.79
2022-11-20T02:49:34.273Z,12.72
2022-11-20T02:52:04.045Z,12.81
2022-11-20T02:54:31.096Z,12.91
2022-11-20T02:56:58.201Z,12.92
2022-11-20T02:59:25.192Z,12.86
2022-11-20T03:01:52.199Z,12.96
2022-11-20T03:04:22.174Z,12.90
2022-11-20T03:06:49.169Z,13.01
2022-11-20T03:09:16.164Z,13.19
2022-11-20T03:11:45.642Z,13.05
2022-11-20T03:14:15.075Z,13.05
2022-11-20T03:16:42.064Z,13.25
2022-11-20T03:19:10.343Z,13.02
2022-11-20T03:21:37.420Z,13.20
2022-11-20T03:24:04.983Z,13.34
2022-11-20T03:26:32.030Z,13.34
2022-11-20T03:29:04.664Z,13.44
2022-11-20T03:31:36.324Z,13.29
2022-11-20T03:34:04.290Z,13.39
2022-11-20T03:36:32.379Z,13.36
2022-11-20T03:39:01.949Z,13.49
2022-11-20T03:41:37.092Z,13.26
2022-11-20T03:44:06.938Z,12.99
2022-11-20T03:46:34.342Z,12.94
2022-11-20T03:49:01.777Z,12.86
2022-11-20T03:51:35.354Z,13.07
2022-11-20T03:54:07.624Z,13.25
2022-11-20T03:56:37.384Z,13.70
2022-11-20T03:59:04.854Z,13.73
2022-11-20T04:01:34.121Z,13.74
2022-11-20T04:04:01.368Z,13.94
2022-11-20T04:06:31.828Z,13.83
2022-11-20T04:09:01.893Z,13.73
2022-11-20T04:11:34.576Z,13.80
2022-11-20T04:14:06.937Z,13.92
2022-11-20T04:16:40.773Z,13.78
2022-11-20T04:19:14.424Z,14.05
2022-11-20T04:21:42.326Z,14.16
2022-11-20T04:24:12.916Z,14.08
2022-11-20T04:26:47.060Z,14.15
2022-11-20T04:29:16.610Z,13.91
2022-11-20T04:31:44.592Z,14.09
2022-11-20T04:34:12.473Z,14.04
2022-11-20T04:36:39.290Z,14.12
2022-11-20T04:39:07.631Z,14.14
2022-11-20T04:41:36.606Z,14.05
2022-11-20T04:44:05.834Z,14.02
2022-11-20T04:46:36.115Z,13.93
2022-11-20T04:49:02.780Z,14.07
2022-11-20T04:51:29.658Z,13.64
2022-11-20T04:53:56.843Z,13.92
2022-11-20T04:56:23.907Z,13.58
2022-11-20T04:58:51.153Z,13.78
2022-11-20T05:01:23.885Z,13.63
2022-11-20T05:03:51.457Z,13.47
2022-11-20T05:06:20.636Z,13.31
2022-11-20T05:08:47.579Z,13.51
2022-11-20T05:11:16.821Z,13.63
2022-11-20T05:13:43.874Z,13.58
2022-11-20T05:16:18.325Z,13.51
2022-11-20T05:18:45.963Z,13.52
2022-11-20T05:21:13.264Z,13.18
2022-11-20T05:23:40.756Z,13.35
2022-11-20T05:26:09.280Z,13.02
2022-11-20T05:28:35.919Z,13.12
2022-11-20T05:31:17.934Z,12.94
2022-11-20T05:33:46.465Z,13.27
2022-11-20T05:36:15.070Z,13.39
2022-11-20T05:38:42.374Z,13.50
2022-11-20T05:41:15.001Z,13.57
2022-11-20T05:43:44.254Z,13.58
2022-11-20T05:46:12.959Z,13.43
2022-11-20T05:48:40.816Z,13.51
2022-11-20T05:51:09.727Z,13.52
2022-11-20T05:53:37.202Z,13.50
2022-11-20T05:56:07.467Z,13.08
2022-11-20T05:58:34.518Z,13.07
2022-11-20T06:01:16.633Z,13.36
2022-11-20T06:03:46.778Z,13.50
2022-11-20T06:06:14.275Z,13.20
2022-11-20T06:08:41.058Z,13.32
2022-11-20T06:11:09.461Z,13.43
2022-11-20T06:13:41.616Z,13.60
2022-11-20T06:16:09.548Z,13.69
2022-11-20T06:18:36.178Z,13.60
2022-11-20T06:21:10.460Z,13.75
2022-11-20T06:23:37.422Z,13.83
2022-11-20T06:26:07.246Z,13.83
2022-11-20T06:28:34.426Z,13.87
2022-11-20T06:31:01.058Z,13.72
2022-11-20T06:33:27.905Z,13.76
2022-11-20T06:36:00.413Z,13.77
2022-11-20T06:38:29.527Z,13.60
2022-11-20T06:40:56.422Z,13.60
2022-11-20T06:43:23.681Z,13.34
2022-11-20T06:45:54.645Z,13.58
2022-11-20T06:48:21.613Z,13.67
2022-11-20T06:50:48.504Z,13.71
2022-11-20T06:53:15.369Z,13.45
2022-11-20T06:55:46.391Z,13.61
2022-11-20T06:58:16.280Z,13.74
2022-11-20T07:00:43.183Z,13.88
2022-11-20T07:03:12.658Z,13.75
2022-11-20T07:05:39.677Z,13.67
2022-11-20T07:08:06.298Z,13.34
2022-11-20T07:10:33.549Z,13.29
2022-11-20T07:13:00.639Z,13.28
2022-11-20T07:15:27.839Z,13.39
2022-11-20T07:17:54.549Z,12.98
2022-11-20T07:20:21.765Z,13.09
2022-11-20T07:22:54.985Z,13.11
2022-11-20T07:25:21.540Z,13.07
2022-11-20T07:27:48.083Z,12.95
2022-11-20T07:30:15.754Z,13.10
2022-11-20T07:32:42.546Z,12.98
2022-11-20T07:35:09.363Z,13.00
2022-11-20T07:37:37.121Z,12.56
2022-11-20T07:40:04.468Z,12.88
2022-11-20T07:42:31.047Z,12.87
2022-11-20T07:44:57.612Z,13.24
2022-11-20T07:47:24.150Z,13.19
2022-11-20T07:49:50.698Z,13.30
2022-11-20T07:52:17.262Z,13.29
2022-11-20T07:54:43.844Z,13.39
2022-11-20T07:57:10.422Z,13.29
2022-11-20T07:59:37.018Z,12.33
2022-11-20T08:02:03.842Z,12.59
2022-11-20T08:04:30.749Z,12.77
2022-11-20T08:06:57.596Z,12.93
2022-11-20T08:09:24.247Z,12.87
2022-11-20T08:12:09.338Z,12.87
2022-11-20T08:14:35.878Z,13.33
2022-11-20T08:17:02.611Z,13.62
2022-11-20T08:19:29.338Z,13.73
2022-11-20T08:21:56.267Z,13.65
2022-11-20T08:24:22.798Z,13.79
2022-11-20T08:26:49.360Z,13.49
2022-11-20T08:29:16.157Z,13.65
2022-11-20T08:31:42.743Z,13.82
2022-11-20T08:34:10.270Z,13.90
2022-11-20T08:36:38.006Z,13.88
2022-11-20T08:39:04.618Z,13.94
2022-11-20T08:41:33.954Z,13.46
2022-11-20T08:44:03.238Z,13.87
2022-11-20T08:46:37.253Z,13.95
2022-11-20T08:49:05.313Z,13.76
2022-11-20T08:51:31.863Z,13.82
2022-11-20T08:53:58.423Z,13.72
2022-11-20T08:56:25.248Z,13.68
2022-11-20T08:59:18.342Z,13.77
2022-11-20T09:01:40.389Z,13.69
2022-11-20T09:04:06.977Z,13.33
2022-11-20T09:06:33.810Z,13.55
2022-11-20T09:09:06.102Z,13.34
2022-11-20T09:11:33.357Z,13.14
2022-11-20T09:14:00.934Z,13.50
2022-11-20T09:16:27.498Z,13.44
2022-11-20T09:19:13.190Z,12.93
2022-11-20T09:21:40.557Z,13.16
2022-11-20T09:24:07.340Z,13.50
2022-11-20T09:26:33.844Z,13.23
2022-11-20T09:29:00.476Z,13.58
2022-11-20T09:31:27.156Z,13.29
2022-11-20T09:33:53.696Z,13.83
2022-11-20T09:36:20.447Z,13.78
2022-11-20T09:38:48.007Z,13.70
2022-11-20T09:41:36.537Z,13.36
2022-11-20T09:44:27.161Z,14.25
2022-11-20T09:47:01.578Z,14.23
2022-11-20T09:49:42.618Z,14.31
2022-11-20T09:52:27.552Z,14.68
2022-11-20T09:54:55.971Z,14.67
2022-11-20T09:57:29.822Z,14.84
2022-11-20T10:00:06.254Z,14.91
2022-11-20T10:02:54.683Z,16.54
2022-11-20T10:05:30.745Z,17.87
2022-11-20T10:08:17.003Z,18.92
2022-11-20T10:34:10.688Z,17.08
2022-11-20T10:37:36.291Z,16.61
2022-11-20T10:45:06.160Z,16.78
2022-11-20T10:47:34.146Z,15.28
2022-11-20T10:50:07.478Z,15.31
2022-11-20T10:52:48.912Z,15.69
2022-11-20T10:55:51.640Z,15.25
2022-11-20T10:58:27.377Z,15.46
2022-11-20T11:01:24.407Z,15.70
2022-11-20T11:03:53.402Z,15.64
2022-11-20T11:06:33.692Z,14.92
2022-11-20T11:09:05.939Z,15.01
2022-11-20T11:11:34.640Z,14.93
2022-11-20T11:14:09.060Z,15.05
2022-11-20T11:16:36.840Z,15.57
2022-11-20T11:19:08.116Z,15.33
2022-11-20T11:21:35.390Z,15.20
2022-11-20T11:24:26.834Z,14.62
2022-11-20T11:27:10.115Z,14.84
2022-11-20T11:29:39.107Z,15.03
2022-11-20T11:32:19.143Z,14.36
2022-11-20T11:34:45.931Z,14.44
2022-11-20T11:37:22.466Z,14.35
2022-11-20T11:40:03.900Z,14.56
2022-11-20T11:42:42.499Z,14.54
2022-11-20T11:45:43.458Z,14.48
2022-11-20T11:48:38.328Z,14.74
2022-11-20T11:51:54.545Z,14.76
2022-11-20T11:54:28.227Z,14.60
2022-11-20T11:57:00.190Z,14.60
2022-11-20T11:59:42.503Z,13.90
2022-11-20T12:02:53.963Z,14.25
2022-11-20T12:05:42.492Z,14.38
2022-11-20T12:08:41.444Z,14.38
2022-11-20T12:18:35.151Z,14.46
2022-11-20T12:21:24.051Z,13.60
2022-11-20T12:24:07.964Z,14.04
2022-11-20T12:27:24.783Z,14.53
2022-11-20T12:31:06.479Z,14.27
2022-11-20T12:34:28.364Z,13.49
2022-11-20T12:52:53.460Z,14.05
2022-11-20T12:56:35.144Z,13.77
2022-11-20T13:00:18.621Z,13.74
2022-11-20T13:03:25.806Z,13.79
2022-11-20T13:07:41.860Z,13.52
2022-11-20T13:10:37.148Z,13.65
2022-11-20T13:13:27.395Z,13.82
2022-11-20T13:16:01.364Z,13.94
2022-11-20T13:19:12.633Z,12.89
2022-11-20T13:21:51.790Z,13.29
2022-11-20T13:24:26.935Z,13.62
2022-11-20T13:27:06.428Z,13.70
2022-11-20T13:29:35.519Z,13.58
2022-11-20T13:32:08.378Z,13.88
2022-11-20T13:34:36.859Z,13.88
2022-11-20T13:37:07.077Z,14.31
2022-11-20T13:39:36.376Z,14.39
2022-11-20T13:42:27.520Z,14.36
2022-11-20T13:45:03.622Z,14.24
2022-11-20T13:47:30.576Z,14.44
2022-11-20T13:50:03.861Z,14.29
2022-11-20T13:53:31.022Z,14.45
2022-11-20T13:56:13.165Z,14.25
2022-11-20T13:58:50.046Z,14.21
2022-11-20T14:01:31.058Z,14.33
2022-11-20T14:04:06.013Z,14.27
2022-11-20T14:06:42.093Z,14.06
2022-11-20T14:09:31.676Z,14.03
2022-11-20T14:11:59.402Z,13.81
2022-11-20T14:14:28.251Z,13.84
2022-11-20T14:17:23.909Z,13.88
2022-11-20T14:19:56.030Z,13.18
2022-11-20T14:22:29.827Z,13.59
2022-11-20T14:25:15.246Z,13.13
2022-11-20T14:27:44.977Z,13.41
2022-11-20T14:30:17.196Z,12.86
2022-11-20T14:32:46.173Z,12.73
2022-11-20T14:35:24.673Z,12.65
2022-11-20T14:37:52.571Z,13.23
2022-11-20T14:40:26.004Z,13.72
2022-11-20T14:42:53.629Z,13.39
2022-11-20T14:45:22.299Z,13.89
2022-11-20T14:47:53.029Z,13.67
2022-11-20T14:50:29.739Z,13.76
2022-11-20T14:52:59.419Z,13.98
2022-11-20T14:55:32.617Z,13.75
2022-11-20T14:58:07.009Z,13.52
2022-11-20T15:00:36.332Z,13.11
2022-11-20T15:03:03.630Z,13.91
2022-11-20T15:05:49.109Z,13.36
2022-11-20T15:08:17.278Z,13.52
2022-11-20T15:10:49.297Z,13.72
2022-11-20T15:13:31.515Z,13.79
2022-11-20T15:16:00.092Z,13.75
2022-11-20T15:18:38.611Z,13.40
2022-11-20T15:21:12.049Z,13.39
2022-11-20T15:23:39.375Z,13.57
2022-11-20T15:26:06.994Z,13.47
2022-11-20T15:28:40.487Z,13.49
2022-11-20T15:31:07.885Z,13.73
2022-11-20T15:33:34.664Z,13.80
2022-11-20T15:36:01.696Z,13.82
2022-11-20T15:38:28.294Z,13.60
2022-11-20T15:40:55.385Z,13.60
2022-11-20T15:43:22.754Z,13.32
2022-11-20T15:45:54.829Z,13.38
2022-11-20T15:48:29.447Z,13.52
2022-11-20T15:51:11.565Z,13.49
2022-11-20T15:53:42.180Z,13.34
2022-11-20T15:56:15.601Z,13.07
2022-11-20T15:58:42.656Z,12.99
2022-11-20T16:01:14.801Z,13.02
2022-11-20T16:03:42.323Z,13.22
2022-11-20T16:06:09.209Z,13.24
2022-11-20T16:08:36.048Z,13.37
2022-11-20T16:11:02.698Z,13.32
2022-11-20T16:13:50.199Z,13.37
2022-11-20T16:16:23.554Z,13.15
2022-11-20T16:18:51.182Z,12.99
2022-11-20T16:21:18.227Z,12.74
2022-11-20T16:23:44.859Z,12.52
2022-11-20T16:26:21.675Z,12.99
2022-11-20T16:28:48.720Z,13.04
2022-11-20T16:31:17.836Z,13.32
2022-11-20T16:33:51.048Z,13.02
2022-11-20T16:36:19.142Z,13.15
2022-11-20T16:38:46.021Z,12.83
2022-11-20T16:41:16.039Z,12.55
2022-11-20T16:43:51.704Z,12.13
2022-11-20T16:46:21.003Z,12.22
2022-11-20T16:48:56.030Z,12.20
2022-11-20T16:51:25.298Z,11.38
2022-11-20T16:53:53.476Z,11.74
2022-11-20T16:56:22.637Z,11.37
2022-11-20T16:58:51.058Z,11.07
2022-11-20T17:01:21.402Z,11.24
2022-11-20T17:03:58.081Z,11.57
2022-11-20T17:06:27.743Z,11.40
2022-11-20T17:08:55.736Z,11.63
2022-11-20T17:11:23.354Z,11.46
2022-11-20T17:13:51.597Z,11.97
2022-11-20T17:16:20.538Z,12.10
2022-11-20T17:18:49.853Z,12.24
2022-11-20T17:21:17.979Z,12.23
2022-11-20T17:23:46.001Z,12.04
2022-11-20T17:26:17.689Z,12.08
2022-11-20T17:28:52.667Z,12.55
2022-11-20T17:31:19.190Z,12.63
2022-11-20T17:33:46.790Z,12.32
2022-11-20T17:36:18.202Z,12.32
2022-11-20T17:38:45.466Z,11.39
2022-11-20T17:41:18.042Z,10.74
2022-11-20T17:43:44.977Z,10.34
2022-11-20T17:46:20.528Z,11.22
2022-11-20T17:48:48.240Z,11.63
2022-11-20T17:51:17.910Z,11.32
2022-11-20T17:53:46.925Z,11.74
2022-11-20T17:56:31.929Z,12.11
2022-11-20T17:58:58.659Z,12.08
2022-11-20T18:01:25.757Z,11.83
2022-11-20T18:03:52.667Z,12.07
2022-11-20T18:06:21.418Z,12.09
2022-11-20T18:08:49.191Z,11.84
2022-11-20T18:11:28.632Z,12.07
2022-11-20T18:14:16.906Z,12.08
2022-11-20T18:16:46.647Z,12.15
2022-11-20T18:19:21.363Z,11.73
2022-11-20T18:21:48.011Z,11.66
2022-11-20T18:24:15.416Z,11.82
2022-11-20T18:26:44.455Z,12.16
2022-11-20T18:29:12.841Z,12.34
2022-11-20T18:31:40.750Z,12.28
2022-11-20T18:34:11.436Z,12.18
2022-11-20T18:36:39.734Z,12.09
2022-11-20T18:39:06.379Z,12.09
2022-11-20T18:41:51.690Z,12.04
2022-11-20T18:44:41.656Z,12.06
2022-11-20T18:47:14.469Z,11.77
2022-11-20T18:49:51.536Z,11.97
2022-11-20T18:52:29.707Z,11.88
2022-11-20T18:54:56.552Z,11.48
2022-11-20T18:57:26.483Z,11.65
2022-11-20T18:59:56.498Z,11.50
2022-11-20T19:02:23.312Z,11.47
2022-11-20T19:04:49.874Z,11.63
2022-11-20T19:07:17.313Z,11.91
2022-11-20T19:09:48.045Z,11.85
2022-11-20T19:12:14.759Z,11.96
2022-11-20T19:14:41.914Z,11.95
2022-11-20T19:17:11.085Z,12.05
2022-11-20T19:19:37.647Z,11.92
2022-11-20T19:22:04.617Z,11.55
2022-11-20T19:24:31.933Z,11.61
2022-11-20T19:26:58.616Z,11.39
2022-11-20T19:29:25.977Z,11.52
2022-11-20T19:31:53.538Z,11.34
2022-11-20T19:34:20.172Z,11.00
2022-11-20T19:36:46.785Z,10.56
2022-11-20T19:39:14.936Z,10.92
2022-11-20T19:41:41.773Z,10.79
2022-11-20T19:44:11.597Z,10.44
2022-11-20T19:46:39.194Z,10.53
2022-11-20T19:49:10.008Z,10.69
2022-11-20T19:51:38.469Z,10.91
2022-11-20T19:54:05.768Z,11.05
2022-11-20T19:56:34.013Z,10.50
2022-11-20T19:59:01.755Z,10.10
2022-11-20T20:01:30.611Z,9.99
2022-11-20T20:04:02.511Z,9.86
2022-11-20T20:06:29.791Z,9.32
2022-11-20T20:09:00.041Z,9.81
2022-11-20T20:11:28.390Z,9.67
2022-11-20T20:13:56.718Z,9.54
2022-11-20T20:16:26.391Z,9.57
2022-11-20T20:19:01.726Z,9.97
2022-11-20T20:21:30.477Z,9.86
2022-11-20T20:23:58.179Z,10.37
2022-11-20T20:26:26.805Z,10.31
2022-11-20T20:28:54.023Z,10.03
2022-11-20T20:31:23.473Z,10.11
2022-11-20T20:33:50.087Z,10.04
2022-11-20T20:36:18.762Z,10.64
2022-11-20T20:38:46.447Z,10.76
2022-11-20T20:41:14.628Z,10.63
2022-11-20T20:44:00.394Z,10.65
2022-11-20T20:46:26.945Z,10.80
2022-11-20T20:48:54.867Z,10.80
2022-11-20T20:51:22.512Z,10.93
2022-11-20T20:53:50.335Z,10.56
2022-11-20T20:56:17.958Z,10.66
2022-11-20T20:58:44.684Z,10.57
2022-11-20T21:01:13.940Z,10.73
2022-11-20T21:03:40.726Z,11.21
2022-11-20T21:06:09.761Z,11.63
2022-11-20T21:08:40.385Z,11.46
2022-11-20T21:11:11.417Z,11.50
2022-11-20T21:13:39.764Z,11.41
2022-11-20T21:16:07.375Z,10.74
2022-11-20T21:18:34.541Z,11.06
2022-11-20T21:21:23.748Z,11.05
2022-11-20T21:23:51.925Z,11.29
2022-11-20T21:26:19.066Z,11.42
2022-11-20T21:28:45.760Z,11.23
2022-11-20T21:31:15.371Z,11.26
2022-11-20T21:33:43.774Z,11.52
2022-11-20T21:36:13.717Z,11.52
2022-11-20T21:38:40.660Z,11.57
2022-11-20T21:41:10.396Z,11.80
2022-11-20T21:43:37.411Z,11.60
2022-11-20T21:46:10.033Z,11.66
2022-11-20T21:48:39.632Z,11.91
2022-11-20T21:51:08.865Z,11.71
2022-11-20T21:53:36.098Z,11.58
2022-11-20T21:56:04.182Z,11.68
2022-11-20T21:58:31.288Z,11.73
2022-11-20T22:00:58.078Z,11.19
2022-11-20T22:03:24.843Z,10.90
2022-11-20T22:05:58.776Z,10.76
2022-11-20T22:08:26.295Z,10.07
2022-11-20T22:11:13.878Z,9.81
2022-11-20T22:13:59.526Z,9.64
2022-11-20T22:16:26.235Z,9.59
2022-11-20T22:18:55.769Z,9.48
2022-11-20T22:21:24.481Z,8.78
2022-11-20T22:23:52.022Z,9.67
2022-11-20T22:26:23.545Z,9.85
2022-11-20T22:28:52.149Z,10.27
2022-11-20T22:31:20.665Z,10.84
2022-11-20T22:33:48.170Z,10.44
2022-11-20T22:36:20.134Z,10.97
2022-11-20T22:38:47.509Z,10.73
2022-11-20T22:41:20.302Z,10.43
2022-11-20T22:43:47.265Z,10.31
2022-11-20T22:46:16.858Z,10.89
2022-11-20T22:48:53.407Z,10.19
2022-11-20T22:51:22.773Z,10.15
2022-11-20T22:53:51.239Z,9.85
2022-11-20T22:56:18.570Z,9.96
2022-11-20T22:58:47.417Z,10.40
2022-11-20T23:01:25.425Z,10.54
2022-11-20T23:03:54.741Z,10.69
2022-11-20T23:06:22.699Z,11.02
2022-11-20T23:08:50.217Z,11.18
2022-11-20T23:11:25.880Z,11.01
2022-11-20T23:13:58.315Z,11.30
2022-11-20T23:16:27.387Z,11.35
2022-11-20T23:18:58.876Z,11.33
2022-11-20T23:21:25.797Z,11.27
2022-11-20T23:23:54.782Z,11.03
2022-11-20T23:26:23.562Z,11.00
2022-11-20T23:28:50.205Z,11.14
2022-11-20T23:31:17.145Z,10.50
2022-11-20T23:33:45.625Z,10.79
2022-11-20T23:36:13.141Z,11.07
2022-11-20T23:38:40.342Z,10.63
2022-11-20T23:41:08.036Z,10.95
2022-11-20T23:43:35.141Z,11.04
2022-11-20T23:46:03.085Z,10.72
2022-11-20T23:48:32.513Z,10.66
2022-11-20T23:50:59.525Z,10.73
2022-11-20T23:53:27.204Z,10.34
2022-11-20T23:55:56.024Z,10.40
2022-11-20T23:58:25.044Z,10.38
